Iraklis — D5GC7 — position and weather

sailwx.info

Track history (hours):
 
Tides and Currents Weather Stations Pressure Air Temp Water Temp Dewpoint Dewpoint Depression Visibility Wind Speed Wind Dir Waves Ship Positions

Iraklis

Last reported at 2018-Feb-19 05:29 UTC. Time now 2018-Feb-19 08:04 UTC.
Position N 28°08' W 016°13'.

Length 180 m; draft 6.2 m.

Type: Cargo ship. MMSI: 636016421.

Date/timePositionNaut miles runAvg speedWind from/ knotsBaromVisibWave heightAir tempDewpointWater temp
2018-Feb-19 05:29N 28°08' W 016°13'814.2
2018-Feb-19 04:58N 28°13' W 016°08'714.1
2018-Feb-19 04:30N 28°18' W 016°03'714.0
2018-Feb-19 04:00N 28°24' W 015°58'713.9
2018-Feb-19 03:30N 28°29' W 015°53'713.8
2018-Feb-19 03:00N 28°34' W 015°47'713.8
2018-Feb-19 02:28N 28°40' W 015°43'813.7
2018-Feb-19 01:54N 28°46' W 015°37'613.7
2018-Feb-19 01:30N 28°50' W 015°33'713.8
2018-Feb-19 00:59N 28°56' W 015°28'713.7
2018-Feb-19 00:28N 29°01' W 015°22'  
2018-Feb-15 06:10N 37°06' W 001°14'512.8
2018-Feb-15 05:48N 37°09' W 001°10'612.6
2018-Feb-15 05:20N 37°13' W 001°04'412.7
2018-Feb-15 05:00N 37°16' W 000°60'713.0
2018-Feb-15 04:28N 37°20' W 000°53'612.8
2018-Feb-15 04:00N 37°24' W 000°48'812.6
2018-Feb-15 03:24N 37°29' W 000°41'512.3
2018-Feb-15 03:00N 37°32' W 000°36'611.7
2018-Feb-15 02:30N 37°37' W 000°31'611.8
2018-Feb-15 02:00N 37°42' W 000°27'911.7
2018-Feb-15 01:13N 37°50' W 000°21'311.9
2018-Feb-15 01:00N 37°52' W 000°19'612.0
2018-Feb-15 00:30N 37°57' W 000°15'612.0
2018-Feb-15 00:00N 38°02' W 000°11'  
2018-Feb-11 09:20N 39°10' E 002°25'712.3
2018-Feb-11 08:46N 39°08' E 002°34'2212.4
2018-Feb-11 07:02N 39°01' E 003°00'012.5
2018-Feb-11 07:00N 39°01' E 003°00'55011.6
2018-Feb-09 07:30N 36°14' E 014°02'2512.4
2018-Feb-09 05:30N 36°03' E 014°30'  
Track history (hours):
 
Tides and Currents Weather Stations Pressure Air Temp Water Temp Dewpoint Dewpoint Depression Visibility Wind Speed Wind Dir Waves Ship Positions

Iraklis

Last reported at 2018-Feb-19 05:29 UTC. Time now 2018-Feb-19 08:04 UTC.
Position N 28°08' W 016°13'.

Length 180 m; draft 6.2 m.

Type: Cargo ship. MMSI: 636016421.

Date/timePositionNaut miles runAvg speedWind from/ knotsBaromVisibWave heightAir tempDewpointWater temp
2018-Feb-19 05:29N 28°08' W 016°13'814.2
2018-Feb-19 04:58N 28°13' W 016°08'714.1
2018-Feb-19 04:30N 28°18' W 016°03'714.0
2018-Feb-19 04:00N 28°24' W 015°58'713.9
2018-Feb-19 03:30N 28°29' W 015°53'713.8
2018-Feb-19 03:00N 28°34' W 015°47'713.8
2018-Feb-19 02:28N 28°40' W 015°43'813.7
2018-Feb-19 01:54N 28°46' W 015°37'613.7
2018-Feb-19 01:30N 28°50' W 015°33'713.8
2018-Feb-19 00:59N 28°56' W 015°28'713.7
2018-Feb-19 00:28N 29°01' W 015°22'  
2018-Feb-15 06:10N 37°06' W 001°14'512.8
2018-Feb-15 05:48N 37°09' W 001°10'612.6
2018-Feb-15 05:20N 37°13' W 001°04'412.7
2018-Feb-15 05:00N 37°16' W 000°60'713.0
2018-Feb-15 04:28N 37°20' W 000°53'612.8
2018-Feb-15 04:00N 37°24' W 000°48'812.6
2018-Feb-15 03:24N 37°29' W 000°41'512.3
2018-Feb-15 03:00N 37°32' W 000°36'611.7
2018-Feb-15 02:30N 37°37' W 000°31'611.8
2018-Feb-15 02:00N 37°42' W 000°27'911.7
2018-Feb-15 01:13N 37°50' W 000°21'311.9
2018-Feb-15 01:00N 37°52' W 000°19'612.0
2018-Feb-15 00:30N 37°57' W 000°15'612.0
2018-Feb-15 00:00N 38°02' W 000°11'  
2018-Feb-11 09:20N 39°10' E 002°25'712.3
2018-Feb-11 08:46N 39°08' E 002°34'2212.4
2018-Feb-11 07:02N 39°01' E 003°00'012.5
2018-Feb-11 07:00N 39°01' E 003°00'55011.6
2018-Feb-09 07:30N 36°14' E 014°02'2512.4
2018-Feb-09 05:30N 36°03' E 014°30'  

Dump ship's entire track history